createdAt,value
2019-01-22T05:22:45.579Z,22.20
2019-01-22T05:23:45.643Z,25.90
2019-01-22T05:24:45.723Z,27.00
2019-01-22T05:25:45.803Z,26.00
2019-01-22T05:26:45.887Z,26.00
2019-01-22T05:27:45.968Z,25.40
2019-01-22T05:28:46.051Z,27.00
2019-01-22T05:29:46.133Z,25.00
2019-01-22T05:30:46.212Z,26.40
2019-01-22T05:31:46.291Z,26.20
2019-01-22T05:32:46.371Z,26.20
2019-01-22T05:33:46.453Z,25.20
2019-01-22T05:34:46.533Z,26.70
2019-01-22T05:35:46.623Z,25.80
2019-01-22T05:36:46.711Z,25.70
2019-01-22T05:37:46.785Z,25.40
2019-01-22T05:38:46.867Z,26.00
2019-01-22T05:39:46.945Z,25.70
2019-01-22T05:40:47.030Z,27.00
2019-01-22T05:41:47.110Z,24.70
2019-01-22T05:42:47.197Z,26.70
2019-01-22T05:43:47.273Z,26.50
2019-01-22T05:44:47.354Z,26.50
2019-01-22T05:45:47.432Z,26.40
2019-01-22T05:46:47.533Z,26.40
2019-01-22T05:47:47.617Z,25.70
2019-01-22T05:48:47.694Z,26.20
2019-01-22T05:49:47.778Z,26.90
2019-01-22T05:50:47.856Z,28.30
2019-01-22T05:51:47.940Z,25.80
2019-01-22T05:52:48.043Z,27.40
2019-01-22T05:53:48.128Z,26.50
2019-01-22T05:54:48.208Z,27.60
2019-01-22T05:55:48.290Z,27.70
2019-01-22T05:56:48.380Z,27.20
2019-01-22T05:57:48.455Z,27.50
2019-01-22T05:58:48.552Z,27.20
2019-01-22T05:59:48.635Z,26.90
2019-01-22T06:00:49.053Z,28.00
2019-01-22T06:01:48.782Z,27.40
2019-01-22T06:02:48.864Z,27.70
2019-01-22T06:03:48.945Z,28.10
2019-01-22T06:04:49.027Z,28.00
2019-01-22T06:05:49.104Z,27.70
2019-01-22T06:06:49.187Z,28.80
2019-01-22T06:07:49.270Z,28.00
2019-01-22T06:08:49.350Z,28.30
2019-01-22T06:09:49.433Z,27.30
2019-01-22T06:10:49.499Z,28.80
2019-01-22T06:11:49.603Z,26.90
2019-01-22T06:12:49.685Z,27.60
2019-01-22T06:13:49.765Z,27.50
2019-01-22T06:14:49.847Z,27.10
2019-01-22T06:15:49.935Z,27.00
2019-01-22T06:16:50.016Z,27.10
2019-01-22T06:17:50.093Z,27.80
2019-01-22T06:18:50.175Z,27.50
2019-01-22T06:19:50.265Z,28.70
2019-01-22T06:20:50.345Z,27.90
2019-01-22T06:21:50.430Z,28.70
2019-01-22T06:22:50.512Z,28.70
2019-01-22T06:23:50.591Z,28.70
2019-01-22T06:24:50.680Z,28.60
2019-01-22T06:25:50.755Z,29.40
2019-01-22T06:26:50.840Z,28.00
2019-01-22T06:27:50.924Z,29.30
2019-01-22T06:28:51.006Z,29.30
2019-01-22T06:29:51.081Z,29.50
2019-01-22T06:30:51.170Z,29.20
2019-01-22T06:31:51.249Z,28.90
2019-01-22T06:32:51.330Z,29.20
2019-01-22T06:33:51.412Z,28.60
2019-01-22T06:34:51.494Z,29.60
2019-01-22T06:35:51.576Z,29.30
2019-01-22T06:36:51.659Z,29.90
2019-01-22T06:37:51.740Z,29.10
2019-01-22T06:38:51.830Z,28.30
2019-01-22T06:39:51.925Z,28.60
2019-01-22T06:40:52.013Z,29.90
2019-01-22T06:41:52.094Z,29.40
2019-01-22T06:42:52.174Z,29.60
2019-01-22T06:43:52.260Z,29.10
2019-01-22T06:44:52.335Z,27.80
2019-01-22T06:45:52.433Z,27.60
2019-01-22T06:46:52.521Z,27.30
2019-01-22T06:47:52.595Z,27.70
2019-01-22T06:48:52.679Z,27.70
2019-01-22T06:49:52.756Z,28.80
2019-01-22T06:50:52.844Z,30.20
2019-01-22T06:51:52.938Z,28.50
2019-01-22T06:52:53.025Z,27.20
2019-01-22T06:53:53.106Z,26.50
2019-01-22T06:54:53.189Z,26.40
2019-01-22T06:55:53.270Z,25.80
2019-01-22T06:56:53.352Z,24.90
2019-01-22T06:57:53.454Z,24.70
2019-01-22T06:58:53.536Z,26.70
2019-01-22T06:59:53.617Z,27.50
2019-01-22T07:00:53.699Z,26.70
2019-01-22T07:01:53.791Z,29.10
2019-01-22T07:02:53.864Z,28.50
2019-01-22T07:03:53.964Z,29.10
2019-01-22T07:04:54.044Z,28.60
2019-01-22T07:05:54.125Z,28.60
2019-01-22T07:06:54.207Z,29.40
2019-01-22T07:07:54.291Z,29.40
2019-01-22T07:08:54.369Z,29.40
2019-01-22T07:09:54.449Z,29.80
2019-01-22T07:10:54.531Z,29.90
2019-01-22T07:11:54.614Z,29.20
2019-01-22T07:12:54.694Z,28.40
2019-01-22T07:13:54.779Z,26.90
2019-01-22T07:14:54.858Z,27.80
2019-01-22T07:15:54.947Z,27.20
2019-01-22T07:16:55.032Z,26.60
2019-01-22T07:17:55.114Z,26.30
2019-01-22T07:18:55.200Z,26.60
2019-01-22T07:19:55.282Z,26.90
2019-01-22T07:20:55.361Z,26.10
2019-01-22T07:21:55.449Z,26.50
2019-01-22T07:22:55.521Z,27.00
2019-01-22T07:23:55.600Z,26.60
2019-01-22T07:24:55.684Z,27.40
2019-01-22T07:25:55.760Z,26.30
2019-01-22T07:26:55.856Z,26.80
2019-01-22T07:27:55.926Z,27.20
2019-01-22T07:28:56.005Z,28.00
2019-01-22T07:29:56.093Z,27.00
2019-01-22T07:30:56.184Z,27.80
2019-01-22T07:31:56.263Z,27.20
2019-01-22T07:32:56.345Z,28.40
2019-01-22T07:33:56.418Z,27.80
2019-01-22T07:34:56.500Z,26.20
2019-01-22T07:35:56.584Z,26.90
2019-01-22T07:36:56.669Z,26.20
2019-01-22T07:37:56.748Z,27.90
2019-01-22T07:38:56.830Z,27.00
2019-01-22T07:39:56.923Z,27.30
2019-01-22T07:40:57.000Z,26.80
2019-01-22T07:41:57.080Z,27.20
2019-01-22T07:42:57.160Z,27.30
2019-01-22T07:43:57.250Z,27.30
2019-01-22T07:44:57.334Z,27.40
2019-01-22T07:45:57.413Z,27.00
2019-01-22T07:46:57.492Z,28.00
2019-01-22T07:47:57.584Z,28.60
2019-01-22T07:48:57.668Z,28.10
2019-01-22T07:49:57.765Z,27.60
2019-01-22T07:50:57.837Z,28.30
2019-01-22T07:51:57.919Z,30.80
2019-01-22T07:52:58.000Z,31.10
2019-01-22T07:53:58.085Z,29.70
2019-01-22T07:54:58.165Z,29.20
2019-01-22T07:55:58.245Z,28.80
2019-01-22T07:56:58.328Z,27.50
2019-01-22T07:57:58.407Z,27.40
2019-01-22T07:58:58.491Z,28.60
2019-01-22T07:59:58.572Z,28.50
2019-01-22T08:00:58.654Z,30.40
2019-01-22T08:01:58.731Z,29.00
2019-01-22T08:02:58.810Z,30.10
2019-01-22T08:04:06.080Z,28.80
2019-01-22T08:04:59.040Z,28.10
2019-01-22T08:05:59.126Z,28.30
2019-01-22T08:06:59.207Z,29.60
2019-01-22T08:07:59.290Z,27.60
2019-01-22T08:08:59.380Z,30.20
2019-01-22T08:09:59.463Z,34.90
2019-01-22T08:11:00.432Z,29.90
2019-01-22T08:11:59.621Z,32.00
2019-01-22T08:12:59.706Z,28.80
2019-01-22T08:13:59.790Z,30.00
2019-01-22T08:14:59.887Z,29.10
2019-01-22T08:15:59.970Z,28.80
2019-01-22T08:17:00.062Z,28.00
2019-01-22T08:18:00.146Z,28.40
2019-01-22T08:19:00.229Z,28.80
2019-01-22T08:20:00.310Z,28.90
2019-01-22T08:21:00.396Z,28.90
2019-01-22T08:22:00.481Z,29.60
2019-01-22T08:23:00.562Z,29.30
2019-01-22T08:24:00.645Z,30.30
2019-01-22T08:25:01.087Z,30.10
2019-01-22T08:26:00.817Z,30.40
2019-01-22T08:27:00.906Z,30.20
2019-01-22T08:28:00.990Z,27.70
2019-01-22T08:29:01.070Z,27.50
2019-01-22T08:30:01.175Z,26.80
2019-01-22T08:31:01.237Z,27.70
2019-01-22T08:32:01.318Z,29.10
2019-01-22T08:33:01.411Z,27.70
2019-01-22T08:34:01.495Z,27.90
2019-01-22T08:35:01.583Z,27.50
2019-01-22T08:36:01.660Z,28.20
2019-01-22T08:37:01.745Z,28.10
2019-01-22T08:38:01.827Z,28.20
2019-01-22T08:39:01.925Z,27.70
2019-01-22T08:40:02.008Z,28.40
2019-01-22T08:41:02.086Z,28.20
2019-01-22T08:42:02.167Z,28.10
2019-01-22T08:43:02.251Z,27.90
2019-01-22T08:44:02.338Z,27.20
2019-01-22T08:45:02.439Z,28.40
2019-01-22T08:46:02.519Z,28.10
2019-01-22T08:47:02.600Z,28.20
2019-01-22T08:48:02.684Z,27.80
2019-01-22T08:49:02.769Z,27.80
2019-01-22T08:50:02.852Z,27.90
2019-01-22T08:51:02.942Z,27.90
2019-01-22T08:52:03.025Z,28.30
2019-01-22T08:53:03.108Z,29.00
2019-01-22T08:54:03.191Z,28.80
2019-01-22T08:55:08.120Z,28.70
2019-01-22T08:56:03.359Z,28.00
2019-01-22T08:57:03.449Z,27.70
2019-01-22T08:58:03.538Z,28.50
2019-01-22T08:59:03.617Z,28.40
2019-01-22T09:00:03.701Z,27.80
2019-01-22T09:01:03.787Z,29.10
2019-01-22T09:02:03.860Z,27.50
2019-01-22T09:03:03.958Z,28.10
2019-01-22T09:04:04.045Z,29.40
2019-01-22T09:05:04.124Z,28.60
2019-01-22T09:06:04.207Z,28.80
2019-01-22T09:07:04.288Z,28.80
2019-01-22T09:08:04.372Z,29.50
2019-01-22T09:09:04.470Z,29.00
2019-01-22T09:10:04.553Z,29.40
2019-01-22T09:11:04.637Z,28.70
2019-01-22T09:12:04.719Z,28.70
2019-01-22T09:13:04.806Z,28.20
2019-01-22T09:14:04.888Z,29.00
2019-01-22T09:15:04.981Z,29.60
2019-01-22T09:16:05.064Z,26.90
2019-01-22T09:17:05.147Z,29.20
2019-01-22T09:18:05.231Z,28.80
2019-01-22T09:19:05.315Z,29.50
2019-01-22T09:20:05.399Z,28.30
2019-01-22T09:21:05.491Z,29.30
2019-01-22T09:22:05.573Z,29.80
2019-01-22T09:23:05.651Z,28.50
2019-01-22T09:24:05.731Z,29.50
2019-01-22T09:25:05.816Z,30.00
2019-01-22T09:26:05.899Z,28.80
2019-01-22T09:27:05.985Z,29.50
2019-01-22T09:28:06.067Z,29.60
2019-01-22T09:29:06.151Z,28.60
2019-01-22T09:30:06.236Z,28.70
2019-01-22T09:31:06.318Z,28.90
2019-01-22T09:32:06.402Z,29.30
2019-01-22T09:33:06.484Z,28.10
2019-01-22T09:34:06.566Z,30.00
2019-01-22T09:35:10.532Z,29.00
2019-01-22T09:36:06.739Z,29.60
2019-01-22T09:37:06.822Z,29.90
2019-01-22T09:38:06.903Z,30.30
2019-01-22T09:39:06.989Z,30.00
2019-01-22T09:40:07.069Z,30.40
2019-01-22T09:41:07.156Z,30.30
2019-01-22T09:42:07.236Z,30.60
2019-01-22T09:43:07.325Z,31.10
2019-01-22T09:44:07.404Z,31.10
2019-01-22T09:45:08.641Z,31.10
2019-01-22T09:46:07.574Z,32.60
2019-01-22T09:47:07.656Z,32.60
2019-01-22T09:48:07.744Z,33.80
2019-01-22T09:49:07.826Z,31.90
2019-01-22T09:50:07.904Z,34.10
2019-01-22T09:51:07.973Z,33.50
2019-01-22T09:52:08.060Z,33.60
2019-01-22T09:53:08.138Z,33.80
2019-01-22T09:54:09.380Z,33.20
2019-01-22T09:55:08.910Z,33.10
2019-01-22T09:56:08.392Z,33.80
2019-01-22T09:57:08.477Z,31.70
2019-01-22T09:58:08.565Z,31.30
2019-01-22T09:59:08.646Z,33.10
2019-01-22T10:00:08.732Z,32.70
2019-01-22T10:01:08.815Z,33.90
2019-01-22T10:02:08.899Z,32.00
2019-01-22T10:03:08.980Z,32.60
2019-01-22T10:04:09.064Z,32.40
2019-01-22T10:05:09.149Z,32.80
2019-01-22T10:06:09.242Z,32.20
2019-01-22T10:07:09.312Z,31.50
2019-01-22T10:08:09.395Z,32.50
2019-01-22T10:09:09.486Z,34.00
2019-01-22T10:10:09.566Z,31.80
2019-01-22T10:11:09.644Z,32.30
2019-01-22T10:12:09.725Z,34.20
2019-01-22T10:13:09.814Z,33.60
2019-01-22T10:14:09.901Z,31.90
2019-01-22T10:15:09.982Z,31.70
2019-01-22T10:16:10.064Z,33.80
2019-01-22T10:17:10.148Z,32.00
2019-01-22T10:18:10.234Z,31.40
2019-01-22T10:19:10.322Z,30.90
2019-01-22T10:20:10.404Z,31.70
2019-01-22T10:21:10.489Z,32.10
2019-01-22T10:22:10.570Z,32.40
2019-01-22T10:23:10.657Z,31.20
2019-01-22T10:24:10.739Z,31.80
2019-01-22T10:25:10.815Z,34.10
2019-01-22T10:26:10.910Z,32.90
2019-01-22T10:27:10.995Z,34.70
2019-01-22T10:28:11.080Z,34.10
2019-01-22T10:29:11.165Z,33.80
2019-01-22T10:30:11.252Z,33.00
2019-01-22T10:31:11.335Z,32.20
2019-01-22T10:32:11.424Z,33.50
2019-01-22T10:33:11.505Z,33.00
2019-01-22T10:34:11.589Z,32.30
2019-01-22T10:35:11.676Z,32.40
2019-01-22T10:36:11.762Z,33.40
2019-01-22T10:37:11.852Z,31.60
2019-01-22T10:38:11.940Z,31.60
2019-01-22T10:39:12.020Z,31.60
2019-01-22T10:40:12.106Z,31.80
2019-01-22T10:41:12.186Z,30.90
2019-01-22T10:42:12.275Z,31.80
2019-01-22T10:43:12.360Z,31.70
2019-01-22T10:44:12.430Z,32.00
2019-01-22T10:45:12.516Z,32.00
2019-01-22T10:46:20.755Z,32.00
2019-01-22T10:47:12.719Z,31.90
2019-01-22T10:48:12.804Z,31.60
2019-01-22T10:49:12.886Z,32.30
2019-01-22T10:50:12.975Z,31.50
2019-01-22T10:51:13.102Z,31.30
2019-01-22T10:52:13.184Z,31.00
2019-01-22T10:53:13.270Z,31.50
2019-01-22T10:54:13.356Z,30.70
2019-01-22T10:55:13.443Z,31.00
2019-01-22T10:56:13.527Z,31.20
2019-01-22T10:57:13.616Z,30.80
2019-01-22T10:58:13.699Z,30.70
2019-01-22T10:59:13.786Z,31.00
2019-01-22T11:00:13.869Z,30.60
2019-01-22T11:01:13.958Z,30.40
2019-01-22T11:02:14.076Z,30.50
2019-01-22T11:03:14.123Z,30.40
2019-01-22T11:04:14.208Z,29.90
2019-01-22T11:05:14.291Z,30.30
2019-01-22T11:06:14.375Z,30.60
2019-01-22T11:07:14.461Z,31.00
2019-01-22T11:08:14.547Z,29.80
2019-01-22T11:09:14.631Z,30.60
2019-01-22T11:10:14.717Z,29.70
2019-01-22T11:11:14.799Z,31.10
2019-01-22T11:12:14.883Z,30.90
2019-01-22T11:13:14.972Z,30.30
2019-01-22T11:14:15.057Z,31.00
2019-01-22T11:15:15.144Z,30.20
2019-01-22T11:16:15.264Z,30.40
2019-01-22T11:17:15.314Z,30.20
2019-01-22T11:18:15.396Z,31.00
2019-01-22T11:19:15.486Z,29.00
2019-01-22T11:20:15.577Z,30.10
2019-01-22T11:21:15.656Z,28.80
2019-01-22T11:22:15.737Z,30.00
2019-01-22T11:23:15.827Z,29.40
2019-01-22T11:24:15.914Z,30.50
2019-01-22T11:25:15.996Z,29.80
2019-01-22T11:26:16.086Z,31.00
2019-01-22T11:27:16.170Z,28.70
2019-01-22T11:28:16.256Z,29.30
2019-01-22T11:29:16.339Z,29.00
2019-01-22T11:30:16.423Z,29.40
2019-01-22T11:31:16.511Z,28.90
2019-01-22T11:32:16.595Z,27.80
2019-01-22T11:33:16.681Z,26.80
2019-01-22T11:34:16.763Z,27.20
2019-01-22T11:35:16.847Z,27.90
2019-01-22T11:36:16.934Z,27.20
2019-01-22T11:37:17.016Z,28.50
2019-01-22T11:38:17.100Z,25.80
2019-01-22T11:39:17.197Z,27.00
2019-01-22T11:40:17.271Z,26.10
2019-01-22T11:41:17.371Z,25.10
2019-01-22T11:42:17.446Z,27.30
2019-01-22T11:43:17.529Z,26.40
2019-01-22T11:44:17.613Z,26.90
2019-01-22T11:45:17.699Z,26.80
2019-01-22T11:46:17.783Z,27.30
2019-01-22T11:47:17.867Z,27.20
2019-01-22T11:48:17.950Z,26.70
2019-01-22T11:49:23.318Z,28.20
2019-01-22T11:50:18.124Z,27.30
2019-01-22T11:51:18.211Z,27.60
2019-01-22T11:52:18.295Z,28.30
2019-01-22T11:53:18.379Z,26.60
2019-01-22T11:54:18.463Z,26.30
2019-01-22T11:55:18.550Z,27.80
2019-01-22T11:56:18.634Z,26.10
2019-01-22T11:57:18.718Z,26.90
2019-01-22T11:58:18.802Z,28.10
2019-01-22T11:59:18.890Z,28.10
2019-01-22T12:00:18.973Z,27.60
2019-01-22T12:01:19.074Z,26.30
2019-01-22T12:02:19.144Z,24.40
2019-01-22T12:03:19.216Z,24.10
2019-01-22T12:06:01.874Z,25.60
2019-01-22T12:07:01.958Z,27.20
2019-01-22T12:08:02.066Z,28.20
2019-01-22T12:09:02.148Z,27.50
2019-01-22T12:10:02.232Z,27.90
2019-01-22T12:11:02.318Z,26.20
2019-01-22T12:12:02.406Z,27.30
2019-01-22T12:13:02.493Z,26.50
2019-01-22T12:14:02.579Z,27.70
2019-01-22T12:15:02.666Z,27.40
2019-01-22T12:16:02.749Z,27.60
2019-01-22T12:17:02.836Z,27.30
2019-01-22T12:18:02.925Z,28.00
2019-01-22T12:19:03.007Z,29.30
2019-01-22T12:20:03.091Z,27.10
2019-01-22T12:21:03.176Z,28.20
2019-01-22T12:22:03.265Z,27.30
2019-01-22T12:23:03.349Z,28.70
2019-01-22T12:24:03.434Z,28.40
2019-01-22T12:25:03.518Z,27.30
2019-01-22T12:26:03.604Z,28.10
2019-01-22T12:27:03.693Z,25.70
2019-01-22T12:28:03.778Z,28.50
2019-01-22T12:29:03.862Z,28.50
2019-01-22T12:30:03.952Z,27.50
2019-01-22T12:31:04.039Z,26.90
2019-01-22T12:32:04.130Z,27.10
2019-01-22T12:33:04.213Z,26.90
2019-01-22T12:34:04.296Z,27.90
2019-01-22T12:35:04.381Z,26.80
2019-01-22T12:36:04.466Z,26.40
2019-01-22T12:37:04.557Z,26.50
2019-01-22T12:38:04.644Z,28.20
2019-01-22T12:39:04.732Z,29.70
2019-01-22T12:40:04.814Z,29.60
2019-01-22T12:41:04.899Z,29.70
2019-01-22T12:42:04.978Z,27.50
2019-01-22T12:43:05.068Z,29.10
2019-01-22T12:44:05.153Z,30.60
2019-01-22T12:45:05.237Z,28.10
2019-01-22T12:46:05.321Z,29.40
2019-01-22T12:47:05.408Z,27.70
2019-01-22T12:48:05.494Z,27.20
2019-01-22T12:49:05.576Z,29.20
2019-01-22T12:50:05.664Z,30.40
2019-01-22T12:51:05.783Z,29.50
2019-01-22T12:52:05.862Z,29.80
2019-01-22T12:53:05.947Z,27.30
2019-01-22T12:54:06.032Z,29.00
2019-01-22T12:55:06.118Z,29.20
2019-01-22T12:56:06.202Z,30.30
2019-01-22T12:57:06.288Z,29.40
2019-01-22T12:58:06.374Z,29.30
2019-01-22T12:59:06.461Z,28.20
2019-01-22T13:00:06.548Z,28.00
2019-01-22T13:01:06.633Z,28.10
2019-01-22T13:02:06.717Z,28.00
2019-01-22T13:03:06.799Z,28.40
2019-01-22T13:04:06.891Z,27.90
2019-01-22T13:05:06.978Z,28.70
2019-01-22T13:06:07.061Z,28.10
2019-01-22T13:07:07.151Z,29.20
2019-01-22T13:08:07.238Z,28.90
2019-01-22T13:09:07.321Z,28.60
2019-01-22T13:10:07.421Z,29.20
2019-01-22T13:11:07.489Z,28.20
2019-01-22T13:12:07.576Z,29.00
2019-01-22T13:13:07.661Z,30.40
2019-01-22T13:14:07.749Z,30.00
2019-01-22T13:15:07.836Z,27.50
2019-01-22T13:16:07.960Z,28.50
2019-01-22T13:17:08.005Z,28.40
2019-01-22T13:18:08.092Z,28.50
2019-01-22T13:19:08.174Z,29.00
2019-01-22T13:20:08.260Z,29.70
2019-01-22T13:21:08.355Z,28.00
2019-01-22T13:22:08.439Z,29.00
2019-01-22T13:23:08.519Z,28.80
2019-01-22T13:24:08.610Z,29.00
2019-01-22T13:25:08.705Z,28.60
2019-01-22T13:26:11.659Z,29.90
2019-01-22T13:27:08.870Z,28.90
2019-01-22T13:28:08.952Z,29.40
2019-01-22T13:29:09.040Z,29.40
2019-01-22T13:30:09.127Z,28.60
2019-01-22T13:31:09.213Z,29.40
2019-01-22T13:32:09.296Z,28.70
2019-01-22T13:33:09.429Z,29.40
2019-01-22T13:34:09.468Z,28.10
2019-01-22T13:35:09.553Z,27.60
2019-01-22T13:36:09.638Z,29.60
2019-01-22T13:37:09.728Z,27.00
2019-01-22T13:38:09.810Z,28.20
2019-01-22T13:39:09.899Z,27.80
2019-01-22T13:40:09.986Z,27.40
2019-01-22T13:41:10.070Z,26.90
2019-01-22T13:42:10.157Z,26.60
2019-01-22T13:43:10.250Z,27.80
2019-01-22T13:44:10.337Z,26.90
2019-01-22T13:45:10.440Z,26.20
2019-01-22T13:46:10.525Z,27.10
2019-01-22T13:47:10.608Z,26.90
2019-01-22T13:48:10.702Z,27.20
2019-01-22T13:49:10.788Z,26.50
2019-01-22T13:50:10.870Z,26.80
2019-01-22T13:51:10.962Z,26.10
2019-01-22T13:52:11.043Z,27.70
2019-01-22T13:53:11.128Z,26.80
2019-01-22T13:54:11.213Z,25.30
2019-01-22T13:55:11.301Z,24.60
2019-01-22T13:56:11.386Z,25.90
2019-01-22T13:57:11.471Z,25.00
2019-01-22T13:58:12.923Z,24.90
2019-01-22T13:59:11.639Z,25.80
2019-01-22T14:00:11.723Z,25.80
2019-01-22T14:01:11.812Z,25.20
2019-01-22T14:02:11.897Z,26.00
2019-01-22T14:03:11.981Z,24.50
2019-01-22T14:04:12.262Z,25.00
2019-01-22T14:05:21.823Z,24.90
2019-01-22T14:06:12.164Z,25.10
2019-01-22T14:07:12.250Z,24.50
2019-01-22T14:08:12.336Z,25.70
2019-01-22T14:09:12.421Z,27.10
2019-01-22T14:10:12.982Z,24.70
2019-01-22T14:11:12.594Z,24.30
2019-01-22T14:12:12.679Z,25.40
2019-01-22T14:13:12.767Z,26.30
2019-01-22T14:14:12.849Z,26.60
2019-01-22T14:15:12.935Z,26.10
2019-01-22T14:16:13.022Z,26.50
2019-01-22T14:17:13.112Z,24.90
2019-01-22T14:18:13.196Z,25.20
2019-01-22T14:19:13.281Z,25.90
2019-01-22T14:20:13.366Z,25.90
2019-01-22T14:21:13.453Z,25.40
2019-01-22T14:22:13.538Z,26.90
2019-01-22T14:23:13.626Z,26.60
2019-01-22T14:24:13.710Z,26.00
2019-01-22T14:25:13.799Z,25.70
2019-01-22T14:26:13.888Z,25.90
2019-01-22T14:27:13.973Z,26.80
2019-01-22T14:28:14.058Z,25.70
2019-01-22T14:29:14.145Z,26.10
2019-01-22T14:30:14.230Z,24.80
2019-01-22T14:31:14.316Z,25.20
2019-01-22T14:32:14.403Z,25.30
2019-01-22T14:33:14.490Z,26.00
2019-01-22T14:34:14.576Z,26.10
2019-01-22T14:35:14.664Z,25.60
2019-01-22T14:36:14.752Z,26.50
2019-01-22T14:37:14.837Z,27.40
2019-01-22T14:38:14.924Z,26.20
2019-01-22T14:39:15.010Z,26.10
2019-01-22T14:40:15.096Z,25.90
2019-01-22T14:41:15.179Z,26.30
2019-01-22T14:42:15.265Z,27.30
2019-01-22T14:43:15.350Z,27.40
2019-01-22T14:44:15.440Z,27.60
2019-01-22T14:45:15.524Z,27.40
2019-01-22T14:46:15.611Z,26.60
2019-01-22T14:47:15.693Z,27.40
2019-01-22T14:48:15.781Z,25.70
2019-01-22T14:49:15.868Z,25.60
2019-01-22T14:50:15.954Z,26.40
2019-01-22T14:51:16.042Z,25.70
2019-01-22T14:52:16.129Z,25.80
2019-01-22T14:53:16.230Z,26.40
2019-01-22T14:54:16.304Z,27.10
2019-01-22T14:55:16.389Z,26.30
2019-01-22T14:56:16.475Z,26.70
2019-01-22T14:57:21.370Z,26.30
2019-01-22T14:58:16.647Z,26.90
2019-01-22T14:59:16.733Z,26.90
2019-01-22T15:00:16.819Z,26.00
2019-01-22T15:01:16.905Z,26.70
2019-01-22T15:02:16.990Z,26.50
2019-01-22T15:03:17.078Z,27.50
2019-01-22T15:04:17.162Z,26.70
2019-01-22T15:05:17.248Z,25.50
2019-01-22T15:06:17.330Z,27.30
2019-01-22T15:07:17.421Z,26.90
2019-01-22T15:08:17.503Z,27.80
2019-01-22T15:09:17.590Z,27.70
2019-01-22T15:10:17.671Z,27.70
2019-01-22T15:11:17.753Z,27.50
2019-01-22T15:12:17.837Z,26.30
2019-01-22T15:13:18.477Z,27.10
2019-01-22T15:14:18.009Z,26.70
2019-01-22T15:15:18.092Z,26.50
2019-01-22T15:16:18.184Z,25.30
2019-01-22T15:17:18.265Z,27.30
2019-01-22T15:18:18.351Z,27.00
2019-01-22T15:19:18.437Z,25.80
2019-01-22T15:20:18.523Z,26.60
2019-01-22T15:21:18.609Z,25.60
2019-01-22T15:22:18.695Z,27.60
2019-01-22T15:23:18.779Z,26.60
2019-01-22T15:24:18.870Z,27.20
2019-01-22T15:25:18.954Z,26.90
2019-01-22T15:26:19.040Z,28.00
2019-01-22T15:27:19.125Z,27.90
2019-01-22T15:28:19.211Z,26.70
2019-01-22T15:29:19.297Z,26.70
2019-01-22T15:30:19.381Z,27.30
2019-01-22T15:31:19.465Z,27.00
2019-01-22T15:32:19.550Z,26.50
2019-01-22T15:33:19.638Z,26.10
2019-01-22T15:34:19.722Z,27.10
2019-01-22T15:35:19.807Z,25.90
2019-01-22T15:36:19.891Z,26.30
2019-01-22T15:37:19.977Z,26.20
2019-01-22T15:38:20.064Z,25.80
2019-01-22T15:39:20.152Z,26.60
2019-01-22T15:40:20.237Z,27.00
2019-01-22T15:41:20.322Z,26.50
2019-01-22T15:42:20.454Z,26.10
2019-01-22T15:43:20.484Z,26.50
2019-01-22T15:44:20.569Z,24.80
2019-01-22T15:45:20.647Z,25.40
2019-01-22T15:46:20.745Z,25.10
2019-01-22T15:47:20.815Z,25.10
2019-01-22T15:48:20.898Z,26.20
2019-01-22T15:49:20.987Z,26.30
2019-01-22T15:50:21.071Z,25.20
2019-01-22T15:51:21.162Z,23.90
2019-01-22T15:52:21.241Z,24.70
2019-01-22T15:53:21.326Z,26.90
2019-01-22T15:54:21.414Z,26.30
2019-01-22T15:55:21.499Z,26.60
2019-01-22T15:56:21.580Z,25.10
2019-01-22T15:57:21.664Z,25.00
2019-01-22T15:58:21.750Z,26.00
2019-01-22T15:59:21.835Z,26.00
2019-01-22T16:00:21.925Z,25.20
2019-01-22T16:01:22.006Z,25.40
2019-01-22T16:02:22.092Z,25.00
2019-01-22T16:03:22.177Z,26.00
2019-01-22T16:04:22.261Z,25.10
2019-01-22T16:05:22.353Z,26.30
2019-01-22T16:06:22.416Z,25.80
2019-01-22T16:07:22.500Z,25.60
2019-01-22T16:08:22.584Z,26.20
2019-01-22T16:09:22.672Z,25.60
2019-01-22T16:10:22.755Z,25.50
2019-01-22T16:11:22.840Z,26.10
2019-01-22T16:12:22.926Z,25.90
2019-01-22T16:13:23.009Z,25.30
2019-01-22T16:14:23.096Z,26.10
2019-01-22T16:15:23.181Z,26.00
2019-01-22T16:16:23.268Z,25.90
2019-01-22T16:17:23.348Z,26.70
2019-01-22T16:18:23.434Z,25.50
2019-01-22T16:19:23.518Z,25.00
2019-01-22T16:20:23.601Z,26.70
2019-01-22T16:21:23.687Z,26.50
2019-01-22T16:22:23.772Z,26.90
2019-01-22T16:23:23.855Z,27.80
2019-01-22T16:24:23.940Z,27.50
2019-01-22T16:25:24.025Z,25.80
2019-01-22T16:26:24.108Z,27.40
2019-01-22T16:27:24.192Z,26.80
2019-01-22T16:28:24.278Z,27.30
2019-01-22T16:29:24.372Z,26.50
2019-01-22T16:30:24.455Z,27.10
2019-01-22T16:31:24.539Z,27.50
2019-01-22T16:32:24.622Z,27.40
2019-01-22T16:33:24.710Z,27.40
2019-01-22T16:34:24.793Z,27.20
2019-01-22T16:35:24.891Z,26.00
2019-01-22T16:36:24.970Z,25.10
2019-01-22T16:37:25.055Z,26.60
2019-01-22T16:38:25.138Z,26.40
2019-01-22T16:39:25.251Z,26.70
2019-01-22T16:40:25.309Z,26.60
2019-01-22T16:41:25.391Z,27.20
2019-01-22T16:42:25.477Z,26.60
2019-01-22T16:43:25.562Z,27.40
2019-01-22T16:44:25.647Z,26.80
2019-01-22T16:45:25.731Z,26.30
2019-01-22T16:46:25.820Z,26.70
2019-01-22T16:47:25.904Z,26.80
2019-01-22T16:48:25.991Z,27.00
2019-01-22T16:49:26.113Z,25.90
2019-01-22T16:50:26.159Z,26.30
2019-01-22T16:51:26.242Z,26.80
2019-01-22T16:52:26.327Z,26.70
2019-01-22T16:53:26.415Z,25.90
2019-01-22T16:54:26.502Z,27.40
2019-01-22T16:55:26.582Z,27.60
2019-01-22T16:56:26.666Z,27.70
2019-01-22T16:57:26.751Z,27.30
2019-01-22T16:58:26.835Z,27.10
2019-01-22T16:59:26.921Z,28.50
2019-01-22T17:00:27.001Z,28.80
2019-01-22T17:01:27.089Z,28.30
2019-01-22T17:02:27.162Z,28.40
2019-01-22T17:05:10.291Z,27.80
2019-01-22T17:06:10.382Z,28.20
2019-01-22T17:07:10.461Z,27.70
2019-01-22T17:08:10.545Z,28.10
2019-01-22T17:09:10.632Z,28.00
2019-01-22T17:10:10.715Z,28.10
2019-01-22T17:11:10.801Z,28.60
2019-01-22T17:12:10.885Z,26.90
2019-01-22T17:13:10.965Z,28.20
2019-01-22T17:14:11.052Z,28.40
2019-01-22T17:15:11.140Z,28.90
2019-01-22T17:16:11.221Z,29.00
2019-01-22T17:17:11.307Z,28.60
2019-01-22T17:18:11.392Z,29.00
2019-01-22T17:19:11.476Z,29.00
2019-01-22T17:20:11.562Z,30.40
2019-01-22T17:21:11.647Z,29.10
2019-01-22T17:22:11.733Z,29.40
2019-01-22T17:23:16.570Z,29.40
2019-01-22T17:24:11.902Z,30.00
2019-01-22T17:25:11.987Z,29.90
2019-01-22T17:26:12.075Z,29.80
2019-01-22T17:27:12.160Z,30.50
2019-01-22T17:28:12.244Z,29.70
2019-01-22T17:29:12.328Z,30.60
2019-01-22T17:30:12.406Z,32.30
2019-01-22T17:31:12.509Z,32.50
2019-01-22T17:32:12.593Z,31.30
2019-01-22T17:33:12.675Z,32.40
2019-01-22T17:34:12.764Z,30.90
2019-01-22T17:35:12.849Z,30.00
2019-01-22T17:36:12.931Z,31.60
2019-01-22T17:37:13.018Z,30.60
2019-01-22T17:38:13.104Z,29.40
2019-01-22T17:39:13.188Z,30.00
2019-01-22T17:40:16.336Z,29.20
2019-01-22T17:41:13.351Z,30.70
2019-01-22T17:42:13.434Z,32.40
2019-01-22T17:43:13.519Z,30.90
2019-01-22T17:44:13.616Z,31.10
2019-01-22T17:45:13.699Z,31.80
2019-01-22T17:46:13.782Z,31.00
2019-01-22T17:47:13.867Z,32.30
2019-01-22T17:48:13.948Z,32.00
2019-01-22T17:49:14.033Z,31.70
2019-01-22T17:50:14.125Z,30.20
2019-01-22T17:51:14.209Z,30.70
2019-01-22T17:52:14.294Z,30.70
2019-01-22T17:53:14.380Z,31.50
2019-01-22T17:54:14.463Z,31.90
2019-01-22T17:55:14.549Z,29.40
2019-01-22T17:56:14.636Z,31.50
2019-01-22T17:57:14.719Z,30.60
2019-01-22T17:58:14.807Z,33.50
2019-01-22T17:59:14.889Z,31.60
2019-01-22T18:00:14.978Z,33.20
2019-01-22T18:01:15.048Z,32.10
2019-01-22T18:02:15.156Z,31.80
2019-01-22T18:03:15.230Z,31.60
2019-01-22T18:04:15.315Z,32.60
2019-01-22T18:05:15.398Z,33.00
2019-01-22T18:06:15.481Z,31.20
2019-01-22T18:07:15.569Z,32.40
2019-01-22T18:08:15.659Z,34.40
2019-01-22T18:09:15.747Z,33.10
2019-01-22T18:10:15.832Z,34.20
2019-01-22T18:11:15.923Z,35.50
2019-01-22T18:12:15.999Z,35.70
2019-01-22T18:13:16.106Z,35.70
2019-01-22T18:14:16.189Z,33.80
2019-01-22T18:15:16.275Z,33.40
2019-01-22T18:16:16.405Z,33.40
2019-01-22T18:17:16.437Z,33.00
2019-01-22T18:18:16.522Z,33.70
2019-01-22T18:19:16.609Z,32.40